Terminal Aerodrome Forecast
Issued by NWS

Home | Current Version | Previous Version | Text Only | Print | Product List | Glossary On
Versions: 1 2 3 4 5 6 7 8 9 10 11 12 13 14 15 16 17 18
319
FTUS41 KGYX 282322
TAFAUG
TAF
KAUG 282322Z 2900/2924 26004KT P6SM SCT250
     FM291600 23009KT P6SM BKN060=

USA.gov is the U.S. government's official web portal to all federal, state and local government web resources and services.